CYXZ

Details ICAO CYXZ (YXZ)
Name WAWA
Region Canada
Timezone America/Toronto (UTC-5.0)
Plans Departing 7
Arriving 11
Stats Elevation 942 ft / 287 m (AMSL)
Location 47.966667° -84.786667°
Runways 1
Magnetic Variation 7.570° W
Sunrise 2017-12-12 13:21:19 UTC / 2017-12-12 08:21:19 Local
Sunset 2017-12-12 21:47:31 UTC / 2017-12-12 16:47:31 Local
Advertisement - Login to hide

Runways

ID Width Length Bearing (true) Bearing (mag) Surface Threshold Offset Overrun Length
03 100 ft / 30 m 4,422 ft / 1,348 m 23.52° 31.09° Asphalt 0 ft / 0 m 0 ft / 0 m
21 100 ft / 30 m 4,422 ft / 1,348 m 203.52° 211.09° Asphalt 689 ft / 210 m 0 ft / 0 m

Map

Weather


0- 5 10 15 20 25 30 35+ Temperature / ° C

Clouds and Precipitation
Forecast for 2017-12-13 00:00 UTC. Updated 27 minutes ago

Ground ~20,000 ft ~40,000 ft Winds

METAR

CYXZ 121900Z 03008KT 340V050 15SM FEW020 M18/M23 A2991 RMK SC2 SLP161

TAF

TAF CYXZ 121938Z 1220/1224 03008KT P6SM SCT030 TEMPO 1220/1222 5SM -SN BKN020 FM122200 02008KT P6SM BKN030 TEMPO 1222/1224 5SM -SN BKN020 RMK NXT FCST WILL BE ISSUED AT 131245Z

Frequencies

Unicom 122.80 MHz CTAF/UNICOM
Warning: Do not use this data for real-world aviation or navigation. No guarantee of current accuracy is given.